createdAt,value
2022-10-05T00:02:23.942Z,99.90
2022-10-05T00:04:57.064Z,99.90
2022-10-05T00:07:28.043Z,99.90
2022-10-05T00:09:57.528Z,99.90
2022-10-05T00:12:28.563Z,99.90
2022-10-05T00:14:59.746Z,99.90
2022-10-05T00:17:29.459Z,99.90
2022-10-05T00:20:00.661Z,99.90
2022-10-05T00:22:32.990Z,99.90
2022-10-05T00:25:04.332Z,99.90
2022-10-05T00:27:34.329Z,99.90
2022-10-05T00:30:11.178Z,99.90
2022-10-05T00:32:39.369Z,99.90
2022-10-05T00:35:08.278Z,99.90
2022-10-05T00:37:36.295Z,99.90
2022-10-05T00:40:18.474Z,99.90
2022-10-05T00:43:13.347Z,99.90
2022-10-05T00:45:45.654Z,99.90
2022-10-05T00:48:21.100Z,99.90
2022-10-05T00:50:59.009Z,99.90
2022-10-05T00:53:35.196Z,99.90
2022-10-05T00:56:06.490Z,99.90
2022-10-05T00:58:53.362Z,99.90
2022-10-05T01:01:31.469Z,99.90
2022-10-05T01:04:25.925Z,99.90
2022-10-05T01:06:54.728Z,99.90
2022-10-05T01:09:25.746Z,99.90
2022-10-05T01:11:53.830Z,99.90
2022-10-05T01:14:26.845Z,99.90
2022-10-05T01:17:09.556Z,99.90
2022-10-05T01:19:56.922Z,99.90
2022-10-05T01:22:27.868Z,99.90
2022-10-05T01:25:32.386Z,99.90
2022-10-05T01:28:04.017Z,99.90
2022-10-05T01:30:37.524Z,99.90
2022-10-05T01:33:09.405Z,99.90
2022-10-05T01:35:46.481Z,99.90
2022-10-05T01:38:19.468Z,99.90
2022-10-05T01:40:55.100Z,99.90
2022-10-05T01:43:28.717Z,99.90
2022-10-05T01:46:07.439Z,99.90
2022-10-05T01:48:35.569Z,99.90
2022-10-05T01:51:14.274Z,99.90
2022-10-05T01:53:48.800Z,99.90
2022-10-05T01:56:23.165Z,99.90
2022-10-05T01:59:05.030Z,99.90
2022-10-05T02:01:53.335Z,99.90
2022-10-05T02:04:59.904Z,99.90
2022-10-05T02:07:36.511Z,99.90
2022-10-05T02:10:18.119Z,99.90
2022-10-05T02:12:47.214Z,99.90
2022-10-05T02:15:17.595Z,99.90
2022-10-05T02:17:51.183Z,99.90
2022-10-05T02:20:23.356Z,99.90
2022-10-05T02:22:56.396Z,99.90
2022-10-05T02:25:30.747Z,99.90
2022-10-05T02:28:02.277Z,99.90
2022-10-05T02:30:32.329Z,99.90
2022-10-05T02:33:10.880Z,99.90
2022-10-05T02:35:39.023Z,99.90
2022-10-05T02:38:06.973Z,99.90
2022-10-05T02:40:44.135Z,99.90
2022-10-05T02:43:12.238Z,99.90
2022-10-05T02:45:59.108Z,99.90
2022-10-05T02:48:31.399Z,99.90
2022-10-05T02:51:35.092Z,99.90
2022-10-05T02:54:03.173Z,99.90
2022-10-05T02:56:39.417Z,99.90
2022-10-05T02:59:13.446Z,99.90
2022-10-05T03:01:53.115Z,99.90
2022-10-05T03:04:22.390Z,99.90
2022-10-05T03:07:12.275Z,99.90
2022-10-05T03:09:44.643Z,99.90
2022-10-05T03:12:32.343Z,99.90
2022-10-05T03:15:03.352Z,99.90
2022-10-05T03:17:35.439Z,99.90
2022-10-05T03:20:21.938Z,99.90
2022-10-05T03:23:01.033Z,99.90
2022-10-05T03:25:37.677Z,99.90
2022-10-05T03:28:08.789Z,99.90
2022-10-05T03:30:49.443Z,99.90
2022-10-05T03:33:27.587Z,99.90
2022-10-05T03:36:16.770Z,99.90
2022-10-05T03:38:45.149Z,99.90
2022-10-05T03:41:13.794Z,99.90
2022-10-05T03:43:47.936Z,99.90
2022-10-05T03:46:19.204Z,99.90
2022-10-05T03:48:48.152Z,99.90
2022-10-05T03:51:20.680Z,99.90
2022-10-05T03:53:52.891Z,99.90
2022-10-05T03:56:23.942Z,99.90
2022-10-05T03:58:58.672Z,99.90
2022-10-05T04:01:34.736Z,99.90
2022-10-05T04:04:04.592Z,99.90
2022-10-05T04:06:41.556Z,99.90
2022-10-05T04:09:14.353Z,99.90
2022-10-05T04:11:51.338Z,99.90
2022-10-05T04:14:24.934Z,99.90
2022-10-05T04:16:58.507Z,99.90
2022-10-05T04:19:37.614Z,99.90
2022-10-05T04:22:12.232Z,99.90
2022-10-05T04:24:42.572Z,99.90
2022-10-05T04:27:19.349Z,99.90
2022-10-05T04:29:55.374Z,99.90
2022-10-05T04:32:35.952Z,99.90
2022-10-05T04:35:14.946Z,99.90
2022-10-05T04:38:01.764Z,99.90
2022-10-05T04:40:40.939Z,99.90
2022-10-05T04:43:32.161Z,99.90
2022-10-05T04:46:06.495Z,99.90
2022-10-05T04:48:54.564Z,99.90
2022-10-05T04:51:34.029Z,99.90
2022-10-05T04:54:20.629Z,99.90
2022-10-05T04:57:03.456Z,99.90
2022-10-05T04:59:36.017Z,99.90
2022-10-05T05:02:13.095Z,99.90
2022-10-05T05:05:00.697Z,99.90
2022-10-05T05:07:29.524Z,99.90
2022-10-05T05:10:08.208Z,99.90
2022-10-05T05:12:48.536Z,99.90
2022-10-05T05:15:29.667Z,99.90
2022-10-05T05:17:59.563Z,99.90
2022-10-05T05:20:35.694Z,99.90
2022-10-05T05:23:13.247Z,99.90
2022-10-05T05:26:09.998Z,99.90
2022-10-05T05:28:48.389Z,99.90
2022-10-05T05:31:19.586Z,99.90
2022-10-05T05:33:50.867Z,99.90
2022-10-05T05:36:22.988Z,99.90
2022-10-05T05:38:58.080Z,99.90
2022-10-05T05:41:40.331Z,99.90
2022-10-05T05:44:20.229Z,99.90
2022-10-05T05:47:03.396Z,99.90
2022-10-05T05:49:37.694Z,99.90
2022-10-05T05:52:18.514Z,99.90
2022-10-05T05:54:57.319Z,99.90
2022-10-05T05:57:46.556Z,99.90
2022-10-05T06:00:15.177Z,99.90
2022-10-05T06:02:52.832Z,99.90
2022-10-05T06:05:29.304Z,99.90
2022-10-05T06:07:59.145Z,99.90
2022-10-05T06:10:33.313Z,99.90
2022-10-05T06:13:13.535Z,99.90
2022-10-05T06:15:54.458Z,99.90
2022-10-05T06:18:23.731Z,99.90
2022-10-05T06:21:26.412Z,99.90
2022-10-05T06:23:57.884Z,99.90
2022-10-05T06:26:26.679Z,99.90
2022-10-05T06:29:02.879Z,99.90
2022-10-05T06:31:51.685Z,99.90
2022-10-05T06:34:28.293Z,99.90
2022-10-05T06:37:00.536Z,99.90
2022-10-05T06:39:38.696Z,99.90
2022-10-05T06:42:26.634Z,99.90
2022-10-05T06:45:37.550Z,99.90
2022-10-05T06:48:29.406Z,99.90
2022-10-05T06:51:35.181Z,99.90
2022-10-05T06:54:26.199Z,99.90
2022-10-05T06:57:03.889Z,99.90
2022-10-05T06:59:44.411Z,99.90
2022-10-05T07:02:31.152Z,99.90
2022-10-05T07:05:16.174Z,99.90
2022-10-05T07:07:50.465Z,99.90
2022-10-05T07:10:22.116Z,99.90
2022-10-05T07:13:13.019Z,99.90
2022-10-05T07:16:00.366Z,99.90
2022-10-05T07:18:35.186Z,99.90
2022-10-05T07:21:21.964Z,99.90
2022-10-05T07:23:50.219Z,99.90
2022-10-05T07:26:38.756Z,99.90
2022-10-05T07:29:06.996Z,99.80
2022-10-05T07:31:56.284Z,99.90
2022-10-05T07:34:27.333Z,99.90
2022-10-05T07:37:23.263Z,93.30
2022-10-05T07:40:00.575Z,91.60
2022-10-05T07:42:53.926Z,94.40
2022-10-05T07:45:29.860Z,96.20
2022-10-05T07:48:07.984Z,90.00
2022-10-05T07:50:43.693Z,83.40
2022-10-05T07:53:33.672Z,84.40
2022-10-05T07:56:07.034Z,82.90
2022-10-05T07:58:38.407Z,80.90
2022-10-05T08:01:19.507Z,76.70
2022-10-05T08:04:01.071Z,76.50
2022-10-05T08:06:38.578Z,76.90
2022-10-05T08:09:15.789Z,86.30
2022-10-05T08:12:04.124Z,83.20
2022-10-05T08:14:48.895Z,74.30
2022-10-05T08:17:25.501Z,68.70
2022-10-05T08:20:01.725Z,67.70
2022-10-05T08:22:32.210Z,66.60
2022-10-05T08:25:05.837Z,66.90
2022-10-05T08:27:48.658Z,65.50
2022-10-05T08:30:16.876Z,62.90
2022-10-05T08:33:06.008Z,61.70
2022-10-05T08:35:44.144Z,61.70
2022-10-05T08:38:14.134Z,57.40
2022-10-05T08:41:02.135Z,56.40
2022-10-05T08:43:48.912Z,57.90
2022-10-05T08:46:19.953Z,56.10
2022-10-05T08:49:09.302Z,58.40
2022-10-05T08:51:40.292Z,58.10
2022-10-05T08:54:26.911Z,56.50
2022-10-05T08:57:13.648Z,56.50
2022-10-05T08:59:50.033Z,53.10
2022-10-05T09:02:26.827Z,54.10
2022-10-05T09:05:00.809Z,52.40
2022-10-05T09:07:41.211Z,53.70
2022-10-05T09:10:12.350Z,51.80
2022-10-05T09:12:46.696Z,51.20
2022-10-05T09:15:25.273Z,49.10
2022-10-05T09:17:57.945Z,50.60
2022-10-05T09:20:49.274Z,48.80
2022-10-05T09:23:40.697Z,48.60
2022-10-05T09:26:12.113Z,51.10
2022-10-05T09:28:52.414Z,48.20
2022-10-05T09:31:31.113Z,48.30
2022-10-05T09:34:17.912Z,46.50
2022-10-05T09:36:51.170Z,46.10
2022-10-05T09:39:39.426Z,47.50
2022-10-05T09:42:13.440Z,47.40
2022-10-05T09:44:58.520Z,45.30
2022-10-05T09:47:45.545Z,47.10
2022-10-05T09:50:29.498Z,45.80
2022-10-05T09:53:06.307Z,43.90
2022-10-05T09:55:42.042Z,42.90
2022-10-05T09:58:20.703Z,43.10
2022-10-05T10:00:55.585Z,43.30
2022-10-05T10:04:00.682Z,42.30
2022-10-05T10:06:40.333Z,42.60
2022-10-05T10:09:27.429Z,43.30
2022-10-05T10:11:55.522Z,42.90
2022-10-05T10:14:42.205Z,40.90
2022-10-05T10:17:33.034Z,40.90
2022-10-05T10:20:01.025Z,39.70
2022-10-05T10:22:28.930Z,38.10
2022-10-05T10:25:16.920Z,38.00
2022-10-05T10:28:03.499Z,39.40
2022-10-05T10:30:37.392Z,39.10
2022-10-05T10:33:05.808Z,38.50
2022-10-05T10:35:45.296Z,36.80
2022-10-05T10:38:20.523Z,36.90
2022-10-05T10:41:07.258Z,36.60
2022-10-05T10:43:41.638Z,39.00
2022-10-05T10:46:28.279Z,37.20
2022-10-05T10:48:58.042Z,38.90
2022-10-05T10:51:44.643Z,39.00
2022-10-05T10:54:32.935Z,36.90
2022-10-05T10:57:12.212Z,37.40
2022-10-05T10:59:52.257Z,35.40
2022-10-05T11:02:23.494Z,36.20
2022-10-05T11:05:10.179Z,34.60
2022-10-05T11:07:38.274Z,34.30
2022-10-05T11:10:21.433Z,36.90
2022-10-05T11:12:49.362Z,40.10
2022-10-05T11:15:39.635Z,42.10
2022-10-05T11:18:15.850Z,42.80
2022-10-05T11:21:02.608Z,42.60
2022-10-05T11:23:39.907Z,43.60
2022-10-05T11:26:26.359Z,45.30
2022-10-05T11:29:26.952Z,46.90
2022-10-05T11:32:13.673Z,47.10
2022-10-05T11:34:58.422Z,48.80
2022-10-05T11:37:36.609Z,48.80
2022-10-05T11:40:07.651Z,46.50
2022-10-05T11:42:54.494Z,43.30
2022-10-05T11:45:26.701Z,43.30
2022-10-05T11:48:07.611Z,42.50
2022-10-05T11:50:43.348Z,41.90
2022-10-05T11:53:18.995Z,40.80
2022-10-05T11:56:08.525Z,38.90
2022-10-05T11:58:40.655Z,39.10
2022-10-05T12:01:17.807Z,39.70
2022-10-05T12:03:55.217Z,39.00
2022-10-05T12:06:23.860Z,38.00
2022-10-05T12:09:14.448Z,42.10
2022-10-05T12:12:00.832Z,43.70
2022-10-05T12:14:34.915Z,44.90
2022-10-05T12:17:21.520Z,46.40
2022-10-05T12:19:55.715Z,44.50
2022-10-05T12:22:50.214Z,45.70
2022-10-05T12:25:27.400Z,45.60
2022-10-05T12:27:58.231Z,46.70
2022-10-05T12:30:55.057Z,47.60
2022-10-05T12:33:26.351Z,48.70
2022-10-05T12:35:59.565Z,50.30
2022-10-05T12:38:31.057Z,50.80
2022-10-05T12:41:04.884Z,51.20
2022-10-05T12:43:42.081Z,51.70
2022-10-05T12:46:31.581Z,53.40
2022-10-05T12:49:03.081Z,54.40
2022-10-05T12:51:37.810Z,54.60
2022-10-05T12:54:05.909Z,55.70
2022-10-05T12:56:53.980Z,55.30
2022-10-05T12:59:25.135Z,56.40
2022-10-05T13:01:58.256Z,57.40
2022-10-05T13:04:41.295Z,56.10
2022-10-05T13:07:22.199Z,57.60
2022-10-05T13:10:04.460Z,58.30
2022-10-05T13:12:51.288Z,58.20
2022-10-05T13:15:22.571Z,57.90
2022-10-05T13:17:57.212Z,59.90
2022-10-05T13:20:25.281Z,61.30
2022-10-05T13:23:03.344Z,59.00
2022-10-05T13:25:40.252Z,57.40
2022-10-05T13:28:17.092Z,58.00
2022-10-05T13:31:05.432Z,55.40
2022-10-05T13:33:53.580Z,54.40
2022-10-05T13:36:33.749Z,52.80
2022-10-05T13:39:13.979Z,51.90
2022-10-05T13:41:50.607Z,51.00
2022-10-05T13:44:23.887Z,51.60
2022-10-05T13:47:17.085Z,49.40
2022-10-05T13:49:51.092Z,48.40
2022-10-05T13:52:19.488Z,44.90
2022-10-05T13:54:47.403Z,48.70
2022-10-05T13:57:18.787Z,50.20
2022-10-05T13:59:53.733Z,50.80
2022-10-05T14:02:27.461Z,51.40
2022-10-05T14:04:59.523Z,51.70
2022-10-05T14:07:30.519Z,52.90
2022-10-05T14:10:00.069Z,52.90
2022-10-05T14:12:28.665Z,53.90
2022-10-05T14:14:57.493Z,54.10
2022-10-05T14:17:32.168Z,53.10
2022-10-05T14:20:03.273Z,53.50
2022-10-05T14:22:41.148Z,52.70
2022-10-05T14:25:09.232Z,53.60
2022-10-05T14:27:51.083Z,53.60
2022-10-05T14:30:24.188Z,53.30
2022-10-05T14:32:59.820Z,53.60
2022-10-05T14:35:32.074Z,55.00
2022-10-05T14:38:08.431Z,55.20
2022-10-05T14:40:37.921Z,55.30
2022-10-05T14:43:15.074Z,57.10
2022-10-05T14:46:05.601Z,57.70
2022-10-05T14:48:44.409Z,60.20
2022-10-05T14:51:28.783Z,62.50
2022-10-05T14:53:58.135Z,64.00
2022-10-05T14:56:38.657Z,64.10
2022-10-05T14:59:16.473Z,64.60
2022-10-05T15:02:11.323Z,65.80
2022-10-05T15:04:47.745Z,68.00
2022-10-05T15:07:48.648Z,65.70
2022-10-05T15:10:20.043Z,66.10
2022-10-05T15:12:48.834Z,67.70
2022-10-05T15:15:27.353Z,70.30
2022-10-05T15:17:58.580Z,67.50
2022-10-05T15:20:26.677Z,67.70
2022-10-05T15:23:00.806Z,70.20
2022-10-05T15:25:34.317Z,71.80
2022-10-05T15:28:02.255Z,75.10
2022-10-05T15:30:31.117Z,79.10
2022-10-05T15:33:13.281Z,80.70
2022-10-05T15:36:00.971Z,83.70
2022-10-05T15:38:31.613Z,86.00
2022-10-05T15:41:02.744Z,89.50
2022-10-05T15:43:38.618Z,90.70
2022-10-05T15:46:14.387Z,93.20
2022-10-05T15:48:45.534Z,94.70
2022-10-05T15:51:32.224Z,95.10
2022-10-05T15:54:20.174Z,96.70
2022-10-05T15:56:54.036Z,98.20
2022-10-05T15:59:30.862Z,99.80
2022-10-05T16:02:01.792Z,99.90
2022-10-05T16:04:39.136Z,99.90
2022-10-05T16:07:28.819Z,99.90
2022-10-05T16:10:15.237Z,99.90
2022-10-05T16:13:12.722Z,99.90
2022-10-05T16:15:43.216Z,99.90
2022-10-05T16:18:14.184Z,99.90
2022-10-05T16:20:50.400Z,99.90
2022-10-05T16:23:32.196Z,99.90
2022-10-05T16:26:05.864Z,99.90
2022-10-05T16:28:38.687Z,99.90
2022-10-05T16:31:37.830Z,99.90
2022-10-05T16:34:06.946Z,99.90
2022-10-05T16:36:47.514Z,99.90
2022-10-05T16:39:18.511Z,99.90
2022-10-05T16:42:02.012Z,99.90
2022-10-05T16:44:43.049Z,99.90
2022-10-05T16:47:31.336Z,99.90
2022-10-05T16:50:18.052Z,99.90
2022-10-05T16:52:50.371Z,99.90
2022-10-05T16:55:28.293Z,99.90
2022-10-05T16:57:57.447Z,99.90
2022-10-05T17:00:32.247Z,99.90
2022-10-05T17:03:18.897Z,99.90
2022-10-05T17:06:05.722Z,99.90
2022-10-05T17:08:50.040Z,99.90
2022-10-05T17:11:30.378Z,99.90
2022-10-05T17:14:07.701Z,99.90
2022-10-05T17:16:35.762Z,99.90
2022-10-05T17:19:25.358Z,99.90
2022-10-05T17:22:01.000Z,99.90
2022-10-05T17:24:44.271Z,99.90
2022-10-05T17:27:21.533Z,99.90
2022-10-05T17:30:13.398Z,99.90
2022-10-05T17:32:55.897Z,99.90
2022-10-05T17:35:44.139Z,99.90
2022-10-05T17:38:23.017Z,99.90
2022-10-05T17:41:00.429Z,99.90
2022-10-05T17:43:31.189Z,99.90
2022-10-05T17:46:01.495Z,99.90
2022-10-05T17:48:37.146Z,99.90
2022-10-05T17:51:55.479Z,99.90
2022-10-05T17:54:48.246Z,99.90
2022-10-05T17:57:24.317Z,99.90
2022-10-05T17:59:58.480Z,99.90
2022-10-05T18:02:36.167Z,99.90
2022-10-05T18:05:07.613Z,99.90
2022-10-05T18:07:39.606Z,99.90
2022-10-05T18:10:12.000Z,99.90
2022-10-05T18:12:42.230Z,99.90
2022-10-05T18:15:10.259Z,99.90
2022-10-05T18:17:51.559Z,99.90
2022-10-05T18:20:28.985Z,99.90
2022-10-05T18:23:03.304Z,99.90
2022-10-05T18:25:44.154Z,99.90
2022-10-05T18:28:27.723Z,99.90
2022-10-05T18:31:02.294Z,99.90
2022-10-05T18:33:39.531Z,99.90
2022-10-05T18:36:17.409Z,99.90
2022-10-05T18:39:00.805Z,99.90
2022-10-05T18:41:28.935Z,99.90
2022-10-05T18:44:04.413Z,99.90
2022-10-05T18:46:43.114Z,99.90
2022-10-05T18:49:30.073Z,99.90
2022-10-05T18:52:13.818Z,99.90
2022-10-05T18:54:41.880Z,99.90
2022-10-05T18:57:28.619Z,99.90
2022-10-05T19:00:01.297Z,99.90
2022-10-05T19:02:43.330Z,99.90
2022-10-05T19:05:46.929Z,99.90
2022-10-05T19:08:27.484Z,99.90
2022-10-05T19:10:58.005Z,99.90
2022-10-05T19:13:41.919Z,99.90
2022-10-05T19:16:28.581Z,99.90
2022-10-05T19:19:07.580Z,99.90
2022-10-05T19:21:39.781Z,99.90
2022-10-05T19:24:27.131Z,99.90
2022-10-05T19:26:58.192Z,99.90
2022-10-05T19:29:30.672Z,99.90
2022-10-05T19:32:08.314Z,99.90
2022-10-05T19:34:51.772Z,99.90
2022-10-05T19:37:23.304Z,99.90
2022-10-05T19:39:54.691Z,99.90
2022-10-05T19:42:38.499Z,99.90
2022-10-05T19:45:16.716Z,99.90
2022-10-05T19:47:52.589Z,99.90
2022-10-05T19:50:26.457Z,99.90
2022-10-05T19:53:04.394Z,99.90
2022-10-05T19:55:35.659Z,99.90
2022-10-05T19:58:16.494Z,99.90
2022-10-05T20:00:46.154Z,99.90
2022-10-05T20:03:18.867Z,99.90
2022-10-05T20:05:47.332Z,99.90
2022-10-05T20:08:17.572Z,99.90
2022-10-05T20:11:04.523Z,99.90
2022-10-05T20:13:35.462Z,99.90
2022-10-05T20:16:35.797Z,99.90
2022-10-05T20:19:42.742Z,99.90
2022-10-05T20:22:27.999Z,99.90
2022-10-05T20:24:57.695Z,99.90
2022-10-05T20:27:43.992Z,99.90
2022-10-05T20:30:14.340Z,99.90
2022-10-05T20:32:52.619Z,99.90
2022-10-05T20:35:24.145Z,99.90
2022-10-05T20:37:52.558Z,99.90
2022-10-05T20:40:21.579Z,99.90
2022-10-05T20:42:52.977Z,99.90
2022-10-05T20:45:21.085Z,99.90
2022-10-05T20:47:52.016Z,99.90
2022-10-05T20:50:23.215Z,99.90
2022-10-05T20:52:52.620Z,99.90
2022-10-05T20:55:21.397Z,99.90
2022-10-05T20:57:49.542Z,99.90
2022-10-05T21:00:18.722Z,99.90
2022-10-05T21:02:47.303Z,99.90
2022-10-05T21:05:18.673Z,99.90
2022-10-05T21:07:47.089Z,99.90
2022-10-05T21:10:17.883Z,99.90
2022-10-05T21:12:46.077Z,99.90
2022-10-05T21:15:14.160Z,99.90
2022-10-05T21:17:42.594Z,99.90
2022-10-05T21:20:13.390Z,99.90
2022-10-05T21:22:44.425Z,99.90
2022-10-05T21:25:12.606Z,99.90
2022-10-05T21:27:41.879Z,99.90
2022-10-05T21:30:10.593Z,99.90
2022-10-05T21:32:43.954Z,99.90
2022-10-05T21:35:12.512Z,99.90
2022-10-05T21:37:40.560Z,99.90
2022-10-05T21:40:08.871Z,99.90
2022-10-05T21:42:36.936Z,99.90
2022-10-05T21:45:05.529Z,99.90
2022-10-05T21:47:33.995Z,99.90
2022-10-05T21:50:04.016Z,99.90
2022-10-05T21:52:32.848Z,99.90
2022-10-05T21:55:00.846Z,99.90
2022-10-05T21:57:29.174Z,99.90
2022-10-05T21:59:57.237Z,99.90
2022-10-05T22:02:25.428Z,99.90
2022-10-05T22:04:58.205Z,99.90
2022-10-05T22:07:29.471Z,99.90
2022-10-05T22:09:57.569Z,99.90
2022-10-05T22:12:26.712Z,99.90
2022-10-05T22:14:54.899Z,99.90
2022-10-05T22:17:28.326Z,99.90
2022-10-05T22:19:56.346Z,99.90
2022-10-05T22:22:27.098Z,99.90
2022-10-05T22:24:55.583Z,99.90
2022-10-05T22:27:24.727Z,99.90
2022-10-05T22:29:54.172Z,99.90
2022-10-05T22:32:22.806Z,99.90
2022-10-05T22:34:51.997Z,99.90
2022-10-05T22:37:22.458Z,99.90
2022-10-05T22:39:50.673Z,99.90
2022-10-05T22:42:18.868Z,99.90
2022-10-05T22:44:46.957Z,99.90
2022-10-05T22:47:16.623Z,99.90
2022-10-05T22:49:44.611Z,99.90
2022-10-05T22:52:15.900Z,99.90
2022-10-05T22:54:44.855Z,99.90
2022-10-05T22:57:12.881Z,99.90
2022-10-05T22:59:40.854Z,99.90
2022-10-05T23:02:09.052Z,99.90
2022-10-05T23:04:37.159Z,99.90
2022-10-05T23:07:07.909Z,99.90
2022-10-05T23:09:35.918Z,99.90
2022-10-05T23:12:04.177Z,99.90
2022-10-05T23:14:33.651Z,99.90
2022-10-05T23:17:01.708Z,99.90
2022-10-05T23:19:29.860Z,99.90
2022-10-05T23:22:00.825Z,99.90
2022-10-05T23:24:28.989Z,99.90
2022-10-05T23:26:59.988Z,99.90
2022-10-05T23:29:29.084Z,99.90
2022-10-05T23:31:57.062Z,99.90
2022-10-05T23:34:27.642Z,99.90
2022-10-05T23:36:55.813Z,99.90
2022-10-05T23:39:24.746Z,99.90
2022-10-05T23:41:52.899Z,99.90
2022-10-05T23:44:23.364Z,99.90
2022-10-05T23:46:51.479Z,99.90
2022-10-05T23:49:19.763Z,99.90
2022-10-05T23:51:47.768Z,99.90
2022-10-05T23:54:16.641Z,99.90
2022-10-05T23:56:44.717Z,99.90
2022-10-05T23:59:12.674Z,99.90
